createdAt,value
2019-03-11T00:05:13.789Z,99.993896
2019-03-11T00:10:36.612Z,99.993896
2019-03-11T00:15:59.438Z,99.993896
2019-03-11T00:21:22.170Z,99.993896
2019-03-11T00:26:44.829Z,99.993896
2019-03-11T00:32:07.765Z,99.993896
2019-03-11T00:37:30.675Z,99.993896
2019-03-11T00:42:54.619Z,99.993896
2019-03-11T00:48:17.326Z,99.993896
2019-03-11T00:53:40.104Z,99.993896
2019-03-11T00:59:03.667Z,99.707031
2019-03-11T01:04:27.273Z,99.603271
2019-03-11T01:09:50.749Z,99.346924
2019-03-11T01:15:13.772Z,99.139404
2019-03-11T01:20:36.520Z,98.99292
2019-03-11T01:25:59.287Z,97.949219
2019-03-11T01:31:22.275Z,96.386719
2019-03-11T01:36:45.088Z,97.784424
2019-03-11T01:42:16.851Z,97.888184
2019-03-11T01:47:39.621Z,98.199463
2019-03-11T01:53:14.756Z,97.473145
2019-03-11T01:58:47.052Z,99.603271
2019-03-11T02:04:10.101Z,99.993896
2019-03-11T02:09:32.841Z,99.993896
2019-03-11T02:15:05.812Z,99.993896
2019-03-11T02:20:37.573Z,99.993896
2019-03-11T02:26:09.633Z,99.993896
2019-03-11T02:32:10.001Z,99.993896
2019-03-11T02:37:41.918Z,99.993896
2019-03-11T02:43:04.767Z,99.993896
2019-03-11T02:48:29.423Z,99.993896
2019-03-11T02:54:04.239Z,99.993896
2019-03-11T02:59:37.848Z,99.993896
2019-03-11T03:05:10.586Z,99.993896
2019-03-11T03:10:33.655Z,99.993896
2019-03-11T03:15:56.531Z,99.993896
2019-03-11T03:21:30.239Z,99.993896
2019-03-11T03:27:02.941Z,99.993896
2019-03-11T03:32:35.379Z,99.993896
2019-03-11T03:37:58.314Z,99.993896
2019-03-11T03:43:34.822Z,99.993896
2019-03-11T03:49:07.245Z,99.993896
2019-03-11T03:54:31.127Z,99.993896
2019-03-11T03:59:54.717Z,99.993896
2019-03-11T04:05:29.424Z,99.993896
2019-03-11T04:11:04.550Z,99.993896
2019-03-11T04:23:04.616Z,99.993896
2019-03-11T04:29:05.747Z,99.993896
2019-03-11T04:34:39.240Z,99.993896
2019-03-11T04:40:13.221Z,99.993896
2019-03-11T04:45:47.286Z,99.993896
2019-03-11T04:51:10.717Z,99.993896
2019-03-11T04:56:33.491Z,99.993896
2019-03-11T05:02:05.375Z,99.993896
2019-03-11T05:08:07.068Z,99.993896
2019-03-11T05:13:41.464Z,98.66333
2019-03-11T05:19:04.306Z,97.668457
2019-03-11T05:24:27.473Z,98.919678
2019-03-11T05:30:00.810Z,99.749756
2019-03-11T05:35:32.940Z,99.993896
2019-03-11T05:41:05.361Z,99.993896
2019-03-11T05:46:28.423Z,99.993896
2019-03-11T05:52:02.114Z,99.993896
2019-03-11T05:57:34.405Z,99.993896
2019-03-11T06:02:57.423Z,99.993896
2019-03-11T06:08:21.028Z,99.993896
2019-03-11T06:13:53.043Z,99.993896
2019-03-11T06:19:15.898Z,99.993896
2019-03-11T06:24:38.761Z,99.993896
2019-03-11T06:30:01.685Z,99.993896
2019-03-11T06:35:24.701Z,99.993896
2019-03-11T06:40:47.499Z,99.993896
2019-03-11T06:46:10.336Z,99.993896
2019-03-11T06:51:33.437Z,99.993896
2019-03-11T06:56:56.265Z,99.993896
2019-03-11T07:02:19.050Z,99.993896
2019-03-11T07:07:41.959Z,99.993896
2019-03-11T07:13:04.749Z,99.993896
2019-03-11T07:18:27.627Z,99.993896
2019-03-11T07:23:50.403Z,99.993896
2019-03-11T07:29:14.089Z,99.993896
2019-03-11T07:34:37.171Z,99.993896
2019-03-11T07:40:00.664Z,99.993896
2019-03-11T07:45:23.686Z,99.993896
2019-03-11T07:51:21.905Z,99.993896
2019-03-11T07:56:44.943Z,99.993896
2019-03-11T08:02:07.674Z,99.993896
2019-03-11T08:07:31.632Z,99.993896
2019-03-11T08:12:54.590Z,99.993896
2019-03-11T08:18:34.767Z,99.993896
2019-03-11T08:24:00.703Z,99.993896
2019-03-11T08:29:23.832Z,99.993896
2019-03-11T08:34:46.778Z,99.993896
2019-03-11T08:40:09.845Z,99.993896
2019-03-11T08:45:35.336Z,99.993896
2019-03-11T08:50:58.665Z,99.993896
2019-03-11T08:56:23.676Z,99.993896
2019-03-11T09:01:55.461Z,99.993896
2019-03-11T09:07:27.846Z,99.993896
2019-03-11T09:13:01.610Z,99.993896
2019-03-11T09:18:34.737Z,99.993896
2019-03-11T09:24:06.610Z,99.993896
2019-03-11T09:29:30.600Z,99.993896
2019-03-11T09:34:54.537Z,99.993896
2019-03-11T09:40:17.557Z,99.993896
2019-03-11T09:45:40.932Z,99.993896
2019-03-11T09:51:04.031Z,99.993896
2019-03-11T09:56:43.091Z,99.993896
2019-03-11T10:02:00.064Z,99.993896
2019-03-11T10:07:22.798Z,99.993896
2019-03-11T10:12:45.818Z,99.993896
2019-03-11T10:18:09.132Z,99.993896
2019-03-11T10:29:56.659Z,99.993896
2019-03-11T10:35:33.624Z,99.993896
2019-03-11T10:40:56.757Z,99.993896
2019-03-11T10:46:19.479Z,99.859619
2019-03-11T10:51:42.339Z,99.34082
2019-03-11T10:57:05.208Z,99.609375
2019-03-11T11:02:27.991Z,98.468018
2019-03-11T11:07:50.723Z,98.925781
2019-03-11T11:13:13.492Z,98.510742
2019-03-11T11:18:36.096Z,98.822021
2019-03-11T11:24:00.960Z,99.34082
2019-03-11T11:29:23.818Z,99.44458
2019-03-11T11:34:47.374Z,99.993896
2019-03-11T11:40:10.212Z,99.145508
2019-03-11T11:45:32.950Z,97.692871
2019-03-11T11:50:56.406Z,96.777344
2019-03-11T11:56:19.724Z,95.440674
2019-03-11T12:01:42.575Z,94.616699
2019-03-11T12:07:05.294Z,96.520996
2019-03-11T12:12:27.929Z,95.959473
2019-03-11T12:17:50.565Z,92.193604
2019-03-11T12:23:13.213Z,86.279297
2019-03-11T12:28:35.878Z,85.699463
2019-03-11T12:33:58.747Z,87.145996
2019-03-11T12:39:21.656Z,87.249756
2019-03-11T12:44:44.455Z,88.342285
2019-03-11T12:50:07.141Z,84.814453
2019-03-11T12:55:30.815Z,85.931396
2019-03-11T13:00:53.490Z,88.018799
2019-03-11T13:06:16.112Z,85.064697
2019-03-11T13:11:38.918Z,86.077881
2019-03-11T13:17:01.633Z,86.444092
2019-03-11T13:22:24.328Z,86.547852
2019-03-11T13:27:47.114Z,88.48877
2019-03-11T13:33:09.824Z,90.765381
2019-03-11T13:38:34.424Z,90.081787
2019-03-11T13:43:56.028Z,90.350342
2019-03-11T13:49:18.728Z,90.435791
2019-03-11T13:54:41.499Z,91.717529
2019-03-11T14:00:04.282Z,92.236328
2019-03-11T14:05:27.072Z,94.20166
2019-03-11T14:10:49.791Z,96.154785
2019-03-11T14:16:12.471Z,98.168945
2019-03-11T14:21:35.192Z,99.310303
2019-03-11T14:26:57.818Z,99.414062
2019-03-11T14:32:20.557Z,97.601318
2019-03-11T14:37:43.350Z,98.077393
2019-03-11T14:43:06.125Z,96.594238
2019-03-11T14:48:29.109Z,95.916748
2019-03-11T14:53:51.822Z,97.558594
2019-03-11T14:59:14.511Z,97.192383
2019-03-11T15:04:37.131Z,98.016357
2019-03-11T15:10:00.270Z,98.535156
2019-03-11T15:15:26.106Z,97.662354
2019-03-11T15:20:48.887Z,98.699951
2019-03-11T15:26:12.636Z,97.558594
2019-03-11T15:31:36.477Z,99.468994
2019-03-11T15:37:08.112Z,99.572754
2019-03-11T15:42:30.982Z,99.468994
2019-03-11T15:47:54.058Z,99.993896
2019-03-11T15:53:16.777Z,99.993896
2019-03-11T15:58:39.819Z,99.719238
2019-03-11T16:04:02.727Z,99.993896
2019-03-11T16:09:25.631Z,99.993896
2019-03-11T16:14:49.518Z,99.993896
2019-03-11T16:20:11.213Z,99.993896
2019-03-11T16:25:43.406Z,99.993896
2019-03-11T16:31:06.354Z,99.993896
2019-03-11T16:36:57.292Z,99.993896
2019-03-11T16:42:20.475Z,99.993896
2019-03-11T16:47:43.575Z,99.822998
2019-03-11T16:53:06.467Z,99.206543
2019-03-11T16:58:29.333Z,99.822998
2019-03-11T17:03:52.106Z,99.993896
2019-03-11T17:09:14.771Z,99.884033
2019-03-11T17:14:37.500Z,99.676514
2019-03-11T17:20:09.421Z,99.468994
2019-03-11T17:25:41.998Z,99.780273
2019-03-11T17:31:05.008Z,99.261475
2019-03-11T17:36:27.940Z,99.993896
2019-03-11T17:42:00.680Z,99.993896
2019-03-11T17:47:33.488Z,99.993896
2019-03-11T17:53:06.014Z,99.993896
2019-03-11T17:58:37.702Z,99.993896
2019-03-11T18:04:01.146Z,99.993896
2019-03-11T18:09:23.978Z,99.468994
2019-03-11T18:14:46.682Z,98.077393
2019-03-11T18:20:11.153Z,98.077393
2019-03-11T18:25:33.984Z,97.766113
2019-03-11T18:30:56.676Z,97.662354
2019-03-11T18:36:19.575Z,98.327637
2019-03-11T18:41:42.478Z,97.454834
2019-03-11T18:47:08.506Z,96.936035
2019-03-11T18:52:31.392Z,98.120117
2019-03-11T18:57:54.062Z,98.846436
2019-03-11T19:03:17.489Z,98.223877
2019-03-11T19:08:40.649Z,98.223877
2019-03-11T19:14:04.130Z,98.327637
2019-03-11T19:19:26.788Z,99.053955
2019-03-11T19:24:50.565Z,99.157715
2019-03-11T19:30:13.361Z,99.993896
2019-03-11T19:35:37.284Z,99.780273
2019-03-11T19:41:00.089Z,99.993896
2019-03-11T19:46:23.396Z,99.993896
2019-03-11T19:51:46.177Z,99.993896
2019-03-11T19:57:08.973Z,99.993896
2019-03-11T20:02:31.763Z,99.993896
2019-03-11T20:07:54.586Z,99.993896
2019-03-11T20:13:17.827Z,99.993896
2019-03-11T20:18:40.396Z,99.993896
2019-03-11T20:24:03.147Z,99.993896
2019-03-11T20:29:26.354Z,99.993896
2019-03-11T20:34:50.231Z,99.993896
2019-03-11T20:40:14.132Z,99.993896
2019-03-11T20:45:36.843Z,99.993896
2019-03-11T20:50:59.555Z,99.993896
2019-03-11T20:56:31.923Z,99.993896
2019-03-11T21:01:54.645Z,99.993896
2019-03-11T21:07:17.431Z,99.993896
2019-03-11T21:12:40.140Z,99.993896
2019-03-11T21:18:02.997Z,99.993896
2019-03-11T21:23:26.336Z,99.993896
2019-03-11T21:28:57.605Z,99.993896
2019-03-11T21:34:29.825Z,99.993896
2019-03-11T21:39:52.517Z,99.993896
2019-03-11T21:45:15.467Z,99.993896
2019-03-11T21:50:39.286Z,99.993896
2019-03-11T21:56:01.915Z,99.993896
2019-03-11T22:01:24.655Z,99.993896
2019-03-11T22:06:47.393Z,99.993896
2019-03-11T22:12:10.805Z,99.993896
2019-03-11T22:17:35.356Z,99.993896
2019-03-11T22:22:56.786Z,99.993896
2019-03-11T22:28:19.386Z,99.993896
2019-03-11T22:33:42.020Z,99.993896
2019-03-11T22:39:05.616Z,99.993896
2019-03-11T22:44:28.467Z,99.993896
2019-03-11T22:49:51.086Z,99.993896
2019-03-11T22:55:13.924Z,99.993896
2019-03-11T23:00:36.871Z,99.993896
2019-03-11T23:05:59.469Z,99.615479
2019-03-11T23:11:22.106Z,99.768066
2019-03-11T23:16:44.755Z,99.993896
2019-03-11T23:22:08.494Z,99.993896
2019-03-11T23:27:31.413Z,99.993896
2019-03-11T23:32:54.021Z,99.993896
2019-03-11T23:38:16.764Z,99.993896
2019-03-11T23:43:39.556Z,99.993896
2019-03-11T23:49:03.246Z,99.993896
2019-03-11T23:54:26.677Z,99.993896
2019-03-11T23:59:49.481Z,99.993896
